Terminal Aerodrome Forecast
Issued by NWS

Home | Current Version | Previous Version | Graphics & Text | Print | Product List | Glossary On
Versions: 1 2 3 4 5 6 7 8 9 10 11 12 13 14 15 16 17 18 19 20 21 22
000
FTUS43 KGRB 211602 AAA
TAFATW
TAF AMD
KATW 211602Z 2116/2212 10008KT P6SM BKN025 OVC100
     FM211800 11008KT P6SM -SHRA OVC020
     FM212200 08005KT 6SM -SHRA BR OVC010
     FM220200 07005KT 4SM BR OVC007
     FM220800 02003KT 3SM BR OVC005=

USA.gov is the U.S. government's official web portal to all federal, state and local government web resources and services.